Weather observations for the past three days for
Pohnpei - NWS Office
Metric (Imperial)
Date Time (+11) Wind (kph) Vis. (km) Weather Sky Cond. Temperature (ºC) Relative Humidity Wind Chill (°C) Heat Index (°C) Pressure Precipitation (cm)
Air Dwpt 6 hour altimeter (cm) sea level (mb) 1 hr 3 hr 6 hr
Max. Min.
03 05:53 E 6 24.14 Overcast BKN018 OVC130 24 23.3 96% 23 75.64 1008.5
03 04:55 Calm 22.53 Overcast BKN018 OVC130 24.3 23.2 24.7 24 94% 24 75.67 1008.7 0.81
03 03:58 E 6 12.87 Overcast BKN018 OVC130 24.5 23.6 95% 24 75.67 1008.7
03 02:55 E 4 12.87 Overcast BKN018TCU OVC130 24 23.5 97% 23 75.72 1009.3
03 01:50 Calm 12.87 Light Showers Rain OVC017TCU 24 23.7 98% 23 75.77 1010.1 0.79
03 00:50 Calm 16.09 Light Showers Rain OVC017TCU 24.5 23.9 96% 24 75.82 1010.8
02 23:50 Calm 16.09 Light Showers Rain OVC018TCU 24.7 24.1 96% 25 75.9 1011.7
02 22:54 SE 6 16.09 Light Showers Rain OVC018TCU 24.7 24.1 28.5 24.7 96% 25 75.9 1011.7 0.51
02 21:52 SE 4 16.09 Overcast OVC018TCU 24.9 23.9 94% 25 75.9 1011.7
02 20:53 Calm 22.53 Overcast SCT018TCU BKN130 OVC300 25.8 24.8 94% 28 75.74 1009.7
02 19:56 Calm 22.53 Overcast SCT018TCU BKN130 OVC300 26.1 24.6 91% 28 75.74 1009.7
02 18:54 Calm 22.53 Overcast SCT018TCU BKN130 OVC300 27 25.6 92% 31 75.67 1008.8
02 16:55 SE 6 22.53 Overcast BKN018TCU OVC300 28.5 25.3 29.8 26.5 83% 34 75.57 1007.4 1.32
02 15:50 NW 15 22.53 Overcast BKN018TCU OVC300 28.5 25.8 85% 34 75.57 1007.3
02 14:50 Calm 20.92 Overcast BKN017TCU OVC290 27.5 25.7 90% 32 75.57 1007.5
02 13:57 Calm 20.92 Overcast BKN017TCU OVC290 26.9 25.4 92% 31 75.62 1008.1 0.76
02 12:50 E 11 14.48 Light Showers Rain BKN017TCU OVC290 26.5 25.5 94% 30 75.67 1008.8
02 11:50 NE 15 14.48 Light Showers Rain BKN017TCU OVC290 27.9 26.7 93% 34 75.74 1009.8
02 10:55 E 6 20.92 Overcast SCT018TCU BKN130 OVC300 29.8 27.1 31.2 25 85% 39 75.74 1009.8 0.53
02 09:50 E 6 24.14 Overcast SCT018 BKN130 OVC300 31.2 26.3 75% 40 75.74 1009.9
02 08:50 Calm 24.14 Overcast SCT018 BKN130 OVC300 28.8 24.6 78% 34 75.77 1010.2
02 07:55 SE 6 24.14 Overcast SCT018 BKN130 OVC300 27.8 24.1 80% 32 75.72 1009.6
02 06:51 S 4 24.14 Overcast SCT018 BKN130 OVC300 25.1 24.7 98% 26 75.69 1009.0
02 05:59 Calm 24.14 Overcast SCT018 BKN130 OVC300 25 24.7 98% 25 75.64 1008.5
02 04:55 SE 4 24.14 Overcast SCT018 BKN130 OVC300 25 24.6 26 25 98% 25 75.62 1008.1
02 03:58 Calm 24.14 Overcast SCT018 BKN130 OVC300 25.2 24.9 98% 26 75.62 1008.0
02 02:50 S 4 24.14 Overcast SCT018 BKN130 OVC300 25.3 24.9 98% 26 75.64 1008.4
02 01:51 Calm 24.14 Overcast SCT018 BKN130 OVC300 25.2 24.9 98% 26 75.67 1008.7
02 00:53 Calm 24.14 Mostly Cloudy SCT018 BKN300 25.6 24.9 96% 27 75.72 1009.3
01 23:50 Calm 24.14 Overcast BKN018TCU OVC130 25.9 24.9 94% 28 75.77 1010.1
01 22:50 SE 6 24.14 Overcast BKN018TCU OVC130 26 25.2 29 26 95% 28 75.82 1010.8 0.05
01 21:50 Calm 24.14 Overcast BKN018TCU OVC130 26.2 25.2 94% 29 75.82 1010.9
01 20:50 SE 6 22.53 Light Showers Rain BKN017TCU OVC120 26.9 25.8 94% 31 75.79 1010.6
01 19:50 SE 6 24.14 Overcast SCT018TCU BKN130 OVC300 27 25.5 92% 31 75.77 1010.2
01 18:50 SE 6 24.14 Overcast SCT018 OVC300 27.5 25.5 89% 32 75.69 1009.2
01 17:52 SE 7 24.14 Overcast SCT018 OVC300 28.2 25.2 84% 33 75.64 1008.3
01 16:52 SE 6 24.14 Overcast SCT018 BKN130 OVC300 29 25.2 32 29 80% 35 75.59 1007.9
01 15:55 E 6 24.14 Overcast SCT018TCU BKN130 OVC300 30.8 27.1 81% 40 75.59 1007.8
01 14:55 E 7 24.14 Overcast SCT018TCU BKN130 OVC300 30.8 27.1 81% 40 75.59 1007.8
01 13:50 NE 9 24.14 Overcast SCT018TCU BKN130 OVC300 31.9 25.5 69% 40 75.67 1008.7
01 12:56 S 6 24.14 Overcast SCT018 BKN130 OVC300 30.1 27.3 85% 39 75.72 1009.3
01 11:54 SE 6 24.14 Overcast SCT018 BKN130 OVC300 32 26.7 74% 42 75.77 1010.2
01 09:53 SE 6 24.14 Overcast SCT018 BKN130 OVC300 28.5 26.5 89% 35 75.87 1011.5
01 08:50 SE 6 20.92 Light Showers Rain BKN018TCU BKN130 OVC300 26.8 25.6 93% 30 75.84 1011.2
01 06:50 E 6 24.14 Overcast BKN018TCU BKN130 OVC300 25.6 24.5 94% 27 75.79 1010.5
01 04:50 E 13 24.14 Overcast BKN018 BKN130 OVC300 26 25 26.1 25.7 94% 28 75.72 1009.5
01 03:58 E 6 24.14 Overcast BKN018 BKN130 OVC300 25.8 24.8 94% 28 75.72 1009.3
01 02:50 E 9 24.14 Overcast BKN018 BKN130 OVC300 25.8 24.8 94% 28 75.72 1009.5
01 01:52 Calm 24.14 Overcast BKN018 BKN130 OVC300 25.7 24.8 95% 27 75.77 1010.1
01 00:55 Calm 24.14 Overcast BKN018 BKN130 OVC300 25.8 25.1 96% 28 75.79 1010.6
30 23:52 Calm 24.14 Overcast BKN018TCU BKN130 OVC300 26 25.5 97% 28 75.87 1011.3
30 22:51 SE 4 24.14 Overcast SCT018 BKN130 OVC300 26.1 25.4 27.9 26.1 96% 29 75.87 1011.4
30 21:53 Calm 24.14 Overcast SCT018 BKN130 OVC300 26.1 25.4 96% 29 75.87 1011.3
30 20:51 E 6 24.14 Overcast BKN018TCU OVC130 26.4 25.7 96% 29 75.82 1010.7
30 19:51 Calm 24.14 Overcast BKN018 OVC130 26.9 25.7 93% 31 75.79 1010.3
30 18:50 E 4 24.14 Overcast BKN018 OVC130 27 26.5 97% 32 75.74 1009.7
30 17:55 NE 4 24.14 Overcast BKN018 OVC130 27.6 25.5 88% 32 75.69 1009.1
30 16:59 NE 6 24.14 Overcast BKN018 OVC130 27.9 25.6 30.8 26.7 87% 33 75.67 1008.6 1.85
30 15:50 SE 6 24.14 Overcast BKN018TCU OVC130 28.2 25.9 87% 34 75.67 1008.7
30 14:55 SE 6 24.14 Overcast BKN018TCU OVC130 28.9 25.3 81% 35 75.67 1008.8
30 13:55 SE 6 24.14 Overcast BKN018CB OVC130 27 25.6 92% 31 75.69 1009.0 1.83
30 12:50 Calm 12.87 Light Showers Rain BKN017CB OVC120 26.7 25.9 95% 30 75.74 1009.9
30 11:55 SE 6 16.09 Showers Rain BKN017TCU OVC120 27.2 26.2 94% 32 75.82 1010.7
30 10:50 SE 6 24.14 Overcast BKN018TCU OVC130 30.8 25.9 30.8 25.5 75% 39 75.84 1011.1 0.3
30 09:50 SE 6 24.14 Overcast BKN018TCU OVC130 29.2 26 83% 36 75.9 1011.9
30 08:55 SE 6 24.14 Overcast BKN018TCU OVC130 27 25.6 92% 31 75.9 1011.7
30 07:52 SE 6 24.14 Overcast BKN017TCU OVC130 26 25.3 96% 28 75.84 1011.1 0.3
30 06:59 S 6 19.31 Overcast BKN017TCU OVC130 25.9 24.8 94% 28 75.87 1011.3
Date Time (+11) Wind (kph) Vis. (km) Weather Sky Cond. Air Dwpt Max. Min. Relative Humidity Wind Chill (°C) Heat Index (°C) altimeter (cm) sea level (mb) 1 hr 3 hr 6 hr
6 hour
Temperature (ºC) Pressure Precipitation (cm)